createdAt,value
2023-05-18T00:00:23.714Z,11.22
2023-05-18T00:00:55.624Z,11.21
2023-05-18T00:01:28.060Z,11.16
2023-05-18T00:02:01.191Z,11.16
2023-05-18T00:02:32.946Z,11.22
2023-05-18T00:03:04.840Z,11.21
2023-05-18T00:03:37.042Z,11.19
2023-05-18T00:04:10.165Z,11.18
2023-05-18T00:04:42.184Z,11.18
2023-05-18T00:05:14.223Z,11.15
2023-05-18T00:05:46.002Z,11.18
2023-05-18T00:06:17.722Z,11.18
2023-05-18T00:07:03.322Z,11.14
2023-05-18T00:07:34.988Z,11.16
2023-05-18T00:08:07.076Z,11.15
2023-05-18T00:08:39.667Z,11.15
2023-05-18T00:09:11.319Z,11.15
2023-05-18T00:09:43.485Z,11.09
2023-05-18T00:10:15.206Z,11.12
2023-05-18T00:10:47.013Z,11.18
2023-05-18T00:11:18.794Z,11.12
2023-05-18T00:11:51.148Z,11.15
2023-05-18T00:12:22.876Z,11.05
2023-05-18T00:12:54.694Z,11.02
2023-05-18T00:13:26.525Z,11.05
2023-05-18T00:13:58.196Z,11.08
2023-05-18T00:14:30.227Z,11.09
2023-05-18T00:15:02.380Z,11.05
2023-05-18T00:15:34.105Z,11.09
2023-05-18T00:16:07.044Z,11.12
2023-05-18T00:16:38.761Z,11.14
2023-05-18T00:17:10.499Z,11.12
2023-05-18T00:17:42.735Z,11.09
2023-05-18T00:18:14.504Z,11.15
2023-05-18T00:18:46.337Z,11.15
2023-05-18T00:19:18.161Z,11.08
2023-05-18T00:19:50.510Z,11.07
2023-05-18T00:20:22.521Z,11.07
2023-05-18T00:21:00.780Z,11.09
2023-05-18T00:21:33.750Z,11.08
2023-05-18T00:22:07.886Z,11.08
2023-05-18T00:22:42.693Z,11.09
2023-05-18T00:23:16.457Z,11.14
2023-05-18T00:23:50.509Z,11.04
2023-05-18T00:24:22.303Z,11.07
2023-05-18T00:24:53.967Z,11.07
2023-05-18T00:25:25.724Z,11.07
2023-05-18T00:25:58.417Z,11.11
2023-05-18T00:26:30.244Z,11.07
2023-05-18T00:27:02.035Z,11.11
2023-05-18T00:27:33.672Z,11.12
2023-05-18T00:28:05.314Z,11.08
2023-05-18T00:28:37.008Z,11.04
2023-05-18T00:29:09.567Z,11.05
2023-05-18T00:29:41.446Z,11.05
2023-05-18T00:30:13.877Z,11.08
2023-05-18T00:30:45.744Z,11.08
2023-05-18T00:31:17.665Z,11.04
2023-05-18T00:31:49.526Z,11.09
2023-05-18T00:32:21.350Z,11.09
2023-05-18T00:32:53.144Z,11.12
2023-05-18T00:33:24.846Z,11.12
2023-05-18T00:33:56.660Z,11.16
2023-05-18T00:34:28.553Z,11.16
2023-05-18T00:35:00.294Z,11.16
2023-05-18T00:35:32.269Z,11.15
2023-05-18T00:36:04.322Z,11.11
2023-05-18T00:36:37.347Z,11.15
2023-05-18T00:37:09.103Z,11.08
2023-05-18T00:37:40.878Z,11.12
2023-05-18T00:38:12.587Z,11.09
2023-05-18T00:38:44.214Z,11.09
2023-05-18T00:39:15.888Z,11.12
2023-05-18T00:39:47.504Z,11.12
2023-05-18T00:40:20.186Z,11.14
2023-05-18T00:40:51.816Z,11.18
2023-05-18T00:41:23.830Z,11.12
2023-05-18T00:41:55.524Z,11.15
2023-05-18T00:42:27.224Z,11.14
2023-05-18T00:42:59.046Z,11.16
2023-05-18T00:43:31.205Z,11.15
2023-05-18T00:44:04.990Z,11.12
2023-05-18T00:44:37.006Z,11.15
2023-05-18T00:45:09.014Z,11.19
2023-05-18T00:45:40.937Z,11.22
2023-05-18T00:46:12.831Z,11.22
2023-05-18T00:46:44.693Z,11.16
2023-05-18T00:47:18.531Z,11.12
2023-05-18T00:47:50.279Z,11.16
2023-05-18T00:48:21.979Z,11.16
2023-05-18T00:48:55.678Z,11.18
2023-05-18T00:49:27.627Z,11.18
2023-05-18T00:49:59.455Z,11.19
2023-05-18T00:50:32.151Z,11.21
2023-05-18T00:51:05.246Z,11.21
2023-05-18T00:51:37.762Z,11.21
2023-05-18T00:52:09.661Z,11.22
2023-05-18T00:52:41.926Z,11.19
2023-05-18T00:53:13.601Z,11.21
2023-05-18T00:53:45.853Z,11.19
2023-05-18T00:54:17.675Z,11.18
2023-05-18T00:54:49.572Z,11.11
2023-05-18T00:55:21.391Z,11.11
2023-05-18T00:55:53.676Z,11.08
2023-05-18T00:56:26.520Z,11.02
2023-05-18T00:57:02.095Z,11.02
2023-05-18T00:57:33.808Z,11.04
2023-05-18T00:58:05.725Z,11.05
2023-05-18T00:58:39.108Z,11.04
2023-05-18T00:59:11.925Z,11.05
2023-05-18T00:59:44.637Z,11.07
2023-05-18T01:00:16.663Z,11.08
2023-05-18T01:00:48.734Z,11.09
2023-05-18T01:01:24.561Z,11.05
2023-05-18T01:01:56.441Z,11.04
2023-05-18T01:02:30.651Z,11.05
2023-05-18T01:03:02.650Z,11.09
2023-05-18T01:03:34.605Z,11.05
2023-05-18T01:04:06.478Z,11.09
2023-05-18T01:04:38.220Z,11.08
2023-05-18T01:05:11.248Z,11.04
2023-05-18T01:05:42.961Z,11.07
2023-05-18T01:06:14.950Z,11.07
2023-05-18T01:06:47.337Z,11.07
2023-05-18T01:07:23.245Z,11.12
2023-05-18T01:07:56.663Z,11.12
2023-05-18T01:08:28.439Z,11.11
2023-05-18T01:09:02.670Z,11.08
2023-05-18T01:09:35.159Z,11.09
2023-05-18T01:10:07.575Z,11.07
2023-05-18T01:10:43.626Z,11.05
2023-05-18T01:11:25.121Z,11.05
2023-05-18T01:12:15.183Z,11.08
2023-05-18T01:12:58.933Z,11.09
2023-05-18T01:13:47.294Z,11.09
2023-05-18T01:14:36.658Z,11.09
2023-05-18T01:15:10.122Z,11.09
2023-05-18T01:15:44.588Z,11.12
2023-05-18T01:16:21.939Z,11.14
2023-05-18T01:16:56.658Z,11.11
2023-05-18T01:18:05.447Z,11.07
2023-05-18T01:18:47.155Z,11.05
2023-05-18T01:20:07.452Z,11.01
2023-05-18T01:20:52.926Z,11.07
2023-05-18T01:21:43.093Z,10.98
2023-05-18T01:22:56.529Z,11.01
2023-05-18T01:23:52.417Z,10.97
2023-05-18T01:24:36.080Z,10.97
2023-05-18T01:25:17.571Z,10.92
2023-05-18T01:25:55.395Z,10.97
2023-05-18T01:26:37.638Z,11.04
2023-05-18T01:27:10.245Z,11.02
2023-05-18T01:27:46.484Z,10.97
2023-05-18T01:28:21.282Z,10.92
2023-05-18T01:28:54.915Z,10.92
2023-05-18T01:29:30.403Z,10.87
2023-05-18T01:30:03.381Z,10.87
2023-05-18T01:30:40.070Z,10.91
2023-05-18T01:31:13.456Z,10.97
2023-05-18T01:31:45.388Z,10.90
2023-05-18T01:32:20.905Z,10.87
2023-05-18T01:32:52.719Z,10.85
2023-05-18T01:33:25.402Z,10.85
2023-05-18T01:33:57.069Z,10.85
2023-05-18T01:34:28.737Z,10.85
2023-05-18T01:35:00.557Z,10.84
2023-05-18T01:35:32.545Z,10.81
2023-05-18T01:36:04.642Z,10.84
2023-05-18T01:36:36.659Z,10.85
2023-05-18T01:37:08.441Z,10.84
2023-05-18T01:37:40.642Z,10.82
2023-05-18T01:38:12.404Z,10.85
2023-05-18T01:38:45.606Z,10.81
2023-05-18T01:39:17.623Z,10.80
2023-05-18T01:39:49.363Z,10.85
2023-05-18T01:40:21.375Z,10.82
2023-05-18T01:41:08.189Z,10.81
2023-05-18T01:41:46.844Z,10.85
2023-05-18T01:42:26.625Z,10.84
2023-05-18T01:43:05.234Z,10.85
2023-05-18T01:43:41.320Z,10.78
2023-05-18T01:44:19.578Z,10.81
2023-05-18T01:44:55.252Z,10.88
2023-05-18T01:45:30.645Z,10.85
2023-05-18T01:46:28.101Z,10.88
2023-05-18T01:47:03.424Z,10.91
2023-05-18T01:47:38.460Z,10.90
2023-05-18T01:48:12.087Z,10.87
2023-05-18T01:48:49.334Z,10.84
2023-05-18T01:49:28.433Z,10.84
2023-05-18T01:50:03.092Z,10.78
2023-05-18T01:50:40.262Z,10.81
2023-05-18T01:51:15.209Z,10.78
2023-05-18T01:51:48.728Z,10.85
2023-05-18T01:52:32.292Z,10.90
2023-05-18T01:53:14.820Z,10.88
2023-05-18T01:53:55.208Z,10.85
2023-05-18T01:54:27.370Z,10.80
2023-05-18T01:55:03.546Z,10.82
2023-05-18T01:55:36.951Z,10.85
2023-05-18T01:56:10.832Z,10.87
2023-05-18T01:56:43.996Z,10.81
2023-05-18T01:57:16.860Z,10.82
2023-05-18T01:57:51.634Z,10.84
2023-05-18T01:58:24.245Z,10.82
2023-05-18T01:58:56.350Z,10.84
2023-05-18T01:59:28.874Z,10.82
2023-05-18T02:00:01.209Z,10.80
2023-05-18T02:00:33.247Z,10.80
2023-05-18T02:01:05.087Z,10.80
2023-05-18T02:01:37.092Z,10.78
2023-05-18T02:02:08.916Z,10.82
2023-05-18T02:02:41.417Z,10.82
2023-05-18T02:03:14.537Z,10.75
2023-05-18T02:03:46.789Z,10.78
2023-05-18T02:04:18.788Z,10.77
2023-05-18T02:04:50.563Z,10.74
2023-05-18T02:05:22.257Z,10.74
2023-05-18T02:05:53.933Z,10.77
2023-05-18T02:06:25.751Z,10.78
2023-05-18T02:06:57.914Z,10.84
2023-05-18T02:07:29.576Z,10.78
2023-05-18T02:08:01.250Z,10.75
2023-05-18T02:08:33.831Z,10.80
2023-05-18T02:09:05.795Z,10.75
2023-05-18T02:09:37.464Z,10.84
2023-05-18T02:10:09.620Z,10.78
2023-05-18T02:10:41.370Z,10.77
2023-05-18T02:11:13.183Z,10.80
2023-05-18T02:11:44.916Z,10.80
2023-05-18T02:12:16.995Z,10.80
2023-05-18T02:12:52.684Z,10.84
2023-05-18T02:13:24.393Z,10.84
2023-05-18T02:13:56.305Z,10.78
2023-05-18T02:14:28.065Z,10.81
2023-05-18T02:15:01.288Z,10.80
2023-05-18T02:15:33.049Z,10.75
2023-05-18T02:16:05.040Z,10.77
2023-05-18T02:16:36.769Z,10.81
2023-05-18T02:17:08.597Z,10.85
2023-05-18T02:17:40.458Z,10.80
2023-05-18T02:18:12.204Z,10.85
2023-05-18T02:18:44.891Z,10.84
2023-05-18T02:19:17.533Z,10.85
2023-05-18T02:19:49.384Z,10.81
2023-05-18T02:20:21.623Z,10.84
2023-05-18T02:21:02.775Z,10.82
2023-05-18T02:21:36.141Z,10.80
2023-05-18T02:22:08.304Z,10.70
2023-05-18T02:22:39.969Z,10.68
2023-05-18T02:23:11.597Z,10.67
2023-05-18T02:23:43.291Z,10.67
2023-05-18T02:24:14.970Z,10.67
2023-05-18T02:24:46.707Z,10.68
2023-05-18T02:25:19.187Z,10.70
2023-05-18T02:25:51.092Z,10.75
2023-05-18T02:26:22.763Z,10.78
2023-05-18T02:26:54.555Z,10.68
2023-05-18T02:27:27.142Z,10.74
2023-05-18T02:27:58.792Z,10.72
2023-05-18T02:28:30.504Z,10.71
2023-05-18T02:29:02.224Z,10.78
2023-05-18T02:29:34.074Z,10.82
2023-05-18T02:30:08.536Z,10.77
2023-05-18T02:30:40.230Z,10.81
2023-05-18T02:31:12.389Z,10.81
2023-05-18T02:31:44.345Z,10.80
2023-05-18T02:32:16.853Z,10.80
2023-05-18T02:32:49.335Z,10.80
2023-05-18T02:33:26.259Z,10.80
2023-05-18T02:33:58.603Z,10.81
2023-05-18T02:34:32.413Z,10.72
2023-05-18T02:35:07.078Z,10.80
2023-05-18T02:35:38.891Z,10.80
2023-05-18T02:36:13.079Z,10.80
2023-05-18T02:36:46.300Z,10.77
2023-05-18T02:37:17.974Z,10.81
2023-05-18T02:37:50.217Z,10.82
2023-05-18T02:38:21.875Z,10.81
2023-05-18T02:38:53.993Z,10.82
2023-05-18T02:39:25.654Z,10.82
2023-05-18T02:39:57.307Z,10.85
2023-05-18T02:40:29.090Z,10.84
2023-05-18T02:41:00.740Z,10.88
2023-05-18T02:41:35.903Z,10.81
2023-05-18T02:42:07.946Z,10.81
2023-05-18T02:42:40.058Z,10.77
2023-05-18T02:43:11.811Z,10.80
2023-05-18T02:43:43.512Z,10.80
2023-05-18T02:44:15.176Z,10.80
2023-05-18T02:44:46.873Z,10.75
2023-05-18T02:45:20.884Z,10.78
2023-05-18T02:45:52.875Z,10.80
2023-05-18T02:46:25.105Z,10.80
2023-05-18T02:46:57.195Z,10.85
2023-05-18T02:47:29.261Z,10.85
2023-05-18T02:48:01.031Z,10.82
2023-05-18T02:48:32.798Z,10.84
2023-05-18T02:49:04.826Z,10.84
2023-05-18T02:49:36.511Z,10.85
2023-05-18T02:50:08.477Z,10.90
2023-05-18T02:50:40.173Z,10.87
2023-05-18T02:51:12.479Z,10.90
2023-05-18T02:51:44.176Z,10.85
2023-05-18T02:52:16.468Z,10.84
2023-05-18T02:52:49.974Z,10.81
2023-05-18T02:53:22.382Z,10.80
2023-05-18T02:53:54.019Z,10.80
2023-05-18T02:54:26.079Z,10.81
2023-05-18T02:54:57.774Z,10.78
2023-05-18T02:55:30.219Z,10.75
2023-05-18T02:56:04.059Z,10.77
2023-05-18T02:56:35.742Z,10.82
2023-05-18T02:57:07.623Z,10.65
2023-05-18T02:57:39.593Z,10.72
2023-05-18T02:58:13.724Z,10.75
2023-05-18T02:58:45.397Z,10.72
2023-05-18T02:59:17.259Z,10.74
2023-05-18T02:59:49.041Z,10.78
2023-05-18T03:00:22.457Z,10.80
2023-05-18T03:00:55.646Z,10.78
2023-05-18T03:01:27.710Z,10.77
2023-05-18T03:01:59.470Z,10.81
2023-05-18T03:02:31.681Z,10.82
2023-05-18T03:03:04.418Z,10.88
2023-05-18T03:03:36.137Z,10.88
2023-05-18T03:04:07.965Z,10.84
2023-05-18T03:04:39.712Z,10.87
2023-05-18T03:05:11.478Z,10.90
2023-05-18T03:05:43.637Z,10.91
2023-05-18T03:06:16.263Z,10.87
2023-05-18T03:06:52.935Z,10.85
2023-05-18T03:07:24.786Z,10.84
2023-05-18T03:07:56.580Z,10.85
2023-05-18T03:08:29.045Z,10.84
2023-05-18T03:09:00.728Z,10.75
2023-05-18T03:09:32.474Z,10.80
2023-05-18T03:10:04.566Z,10.81
2023-05-18T03:10:37.459Z,10.78
2023-05-18T03:11:09.158Z,10.74
2023-05-18T03:11:40.850Z,10.81
2023-05-18T03:12:12.562Z,10.90
2023-05-18T03:12:44.264Z,10.91
2023-05-18T03:13:15.984Z,10.91
2023-05-18T03:13:48.450Z,10.84
2023-05-18T03:14:20.109Z,10.80
2023-05-18T03:14:51.848Z,10.77
2023-05-18T03:15:23.570Z,10.77
2023-05-18T03:15:56.715Z,10.80
2023-05-18T03:16:28.893Z,10.77
2023-05-18T03:17:01.623Z,10.80
2023-05-18T03:17:33.903Z,10.75
2023-05-18T03:18:05.877Z,10.85
2023-05-18T03:18:37.690Z,10.84
2023-05-18T03:19:09.403Z,10.84
2023-05-18T03:19:41.568Z,10.85
2023-05-18T03:20:15.449Z,10.80
2023-05-18T03:20:47.238Z,10.84
2023-05-18T03:21:20.269Z,10.84
2023-05-18T03:21:52.012Z,10.81
2023-05-18T03:22:23.681Z,10.78
2023-05-18T03:22:55.393Z,10.87
2023-05-18T03:23:27.425Z,10.94
2023-05-18T03:24:00.228Z,10.88
2023-05-18T03:24:40.837Z,10.87
2023-05-18T03:25:12.518Z,10.88
2023-05-18T03:25:44.911Z,10.88
2023-05-18T03:26:16.928Z,10.88
2023-05-18T03:26:48.580Z,10.85
2023-05-18T03:27:25.516Z,10.92
2023-05-18T03:27:57.282Z,10.85
2023-05-18T03:28:31.939Z,10.88
2023-05-18T03:29:03.593Z,10.92
2023-05-18T03:29:35.312Z,10.88
2023-05-18T03:30:08.311Z,10.84
2023-05-18T03:30:39.958Z,10.82
2023-05-18T03:31:11.782Z,10.78
2023-05-18T03:31:43.546Z,10.81
2023-05-18T03:32:15.362Z,10.75
2023-05-18T03:32:48.061Z,10.72
2023-05-18T03:33:19.755Z,10.77
2023-05-18T03:33:51.581Z,10.80
2023-05-18T03:34:23.251Z,10.80
2023-05-18T03:34:55.387Z,10.82
2023-05-18T03:35:27.137Z,10.82
2023-05-18T03:36:03.939Z,10.85
2023-05-18T03:36:35.867Z,10.85
2023-05-18T03:37:07.697Z,10.87
2023-05-18T03:37:39.487Z,10.92
2023-05-18T03:38:11.339Z,10.95
2023-05-18T03:38:46.022Z,10.94
2023-05-18T03:39:17.761Z,11.00
2023-05-18T03:39:50.044Z,10.91
2023-05-18T03:40:22.418Z,11.00
2023-05-18T03:40:55.394Z,11.00
2023-05-18T03:41:27.295Z,10.92
2023-05-18T03:41:58.911Z,10.88
2023-05-18T03:42:30.686Z,10.87
2023-05-18T03:43:02.475Z,10.90
2023-05-18T03:43:34.259Z,10.94
2023-05-18T03:44:06.283Z,10.87
2023-05-18T03:44:38.241Z,10.87
2023-05-18T03:45:10.797Z,10.87
2023-05-18T03:45:42.590Z,10.88
2023-05-18T03:46:14.262Z,10.87
2023-05-18T03:46:46.599Z,10.85
2023-05-18T03:47:18.856Z,10.90
2023-05-18T03:47:51.402Z,10.80
2023-05-18T03:48:24.487Z,10.82
2023-05-18T03:48:56.210Z,10.82
2023-05-18T03:49:29.872Z,10.82
2023-05-18T03:50:01.772Z,10.81
2023-05-18T03:50:33.904Z,10.77
2023-05-18T03:51:06.139Z,10.85
2023-05-18T03:51:37.826Z,10.81
2023-05-18T03:52:09.500Z,10.81
2023-05-18T03:52:44.594Z,10.85
2023-05-18T03:53:21.576Z,10.81
2023-05-18T03:53:53.328Z,10.81
2023-05-18T03:54:25.037Z,10.90
2023-05-18T03:54:57.060Z,10.92
2023-05-18T03:55:30.493Z,10.94
2023-05-18T03:56:02.512Z,10.80
2023-05-18T03:56:34.156Z,10.78
2023-05-18T03:57:06.008Z,10.84
2023-05-18T03:57:38.009Z,10.82
2023-05-18T03:58:09.734Z,10.85
2023-05-18T03:58:42.549Z,10.88
2023-05-18T03:59:14.932Z,10.94
2023-05-18T03:59:47.041Z,10.95
2023-05-18T04:00:19.066Z,10.98
2023-05-18T04:00:50.766Z,10.97
2023-05-18T04:01:23.986Z,11.02
2023-05-18T04:01:55.780Z,10.95
2023-05-18T04:02:27.777Z,10.95
2023-05-18T04:03:00.871Z,10.88
2023-05-18T04:03:34.814Z,10.94
2023-05-18T04:04:07.478Z,10.92
2023-05-18T04:04:46.195Z,10.88
2023-05-18T04:05:18.324Z,10.97
2023-05-18T04:05:50.223Z,10.97
2023-05-18T04:06:23.860Z,11.00
2023-05-18T04:06:55.895Z,10.98
2023-05-18T04:07:27.591Z,10.88
2023-05-18T04:07:59.484Z,10.92
2023-05-18T04:08:34.510Z,10.95
2023-05-18T04:09:06.935Z,11.05
2023-05-18T04:09:39.421Z,10.92
2023-05-18T04:10:12.612Z,10.90
2023-05-18T04:10:44.946Z,10.92
2023-05-18T04:11:16.627Z,10.95
2023-05-18T04:11:48.413Z,11.04
2023-05-18T04:12:20.052Z,11.00
2023-05-18T04:12:51.906Z,10.95
2023-05-18T04:13:23.564Z,10.98
2023-05-18T04:13:55.242Z,10.95
2023-05-18T04:14:28.316Z,10.95
2023-05-18T04:15:00.965Z,10.91
2023-05-18T04:15:33.919Z,10.97
2023-05-18T04:16:06.094Z,10.91
2023-05-18T04:16:37.916Z,10.97
2023-05-18T04:17:10.270Z,10.92
2023-05-18T04:17:45.855Z,10.98
2023-05-18T04:18:17.869Z,11.04
2023-05-18T04:18:50.166Z,11.04
2023-05-18T04:19:21.918Z,11.02
2023-05-18T04:19:53.680Z,10.97
2023-05-18T04:20:28.508Z,10.97
2023-05-18T04:21:00.632Z,10.97
2023-05-18T04:21:36.134Z,10.98
2023-05-18T04:22:08.149Z,10.97
2023-05-18T04:22:43.855Z,11.01
2023-05-18T04:23:15.922Z,10.92
2023-05-18T04:23:48.379Z,10.92
2023-05-18T04:24:21.419Z,10.88
2023-05-18T04:24:55.254Z,10.95
2023-05-18T04:25:30.426Z,10.97
2023-05-18T04:26:02.808Z,10.94
2023-05-18T04:26:36.678Z,10.95
2023-05-18T04:27:09.301Z,11.01
2023-05-18T04:27:42.060Z,10.98
2023-05-18T04:28:13.774Z,11.00
2023-05-18T04:28:47.332Z,11.01
2023-05-18T04:29:19.530Z,10.97
2023-05-18T04:29:52.113Z,10.98
2023-05-18T04:30:29.753Z,10.98
2023-05-18T04:31:02.006Z,10.98
2023-05-18T04:31:35.765Z,11.00
2023-05-18T04:32:08.248Z,11.02
2023-05-18T04:32:43.358Z,11.00
2023-05-18T04:33:16.436Z,10.97
2023-05-18T04:33:48.221Z,10.95
2023-05-18T04:34:19.906Z,11.00
2023-05-18T04:34:51.524Z,11.02
2023-05-18T04:35:23.202Z,11.01
2023-05-18T04:35:58.996Z,11.05
2023-05-18T04:36:31.041Z,11.05
2023-05-18T04:37:05.781Z,11.04
2023-05-18T04:37:40.424Z,10.97
2023-05-18T04:38:12.203Z,10.98
2023-05-18T04:38:44.388Z,11.05
2023-05-18T04:39:16.234Z,11.00
2023-05-18T04:39:47.889Z,10.95
2023-05-18T04:40:19.602Z,10.97
2023-05-18T04:40:51.882Z,10.98
2023-05-18T04:41:23.683Z,11.01
2023-05-18T04:41:58.568Z,11.04
2023-05-18T04:42:30.319Z,11.04
2023-05-18T04:43:02.121Z,11.08
2023-05-18T04:43:34.513Z,11.04
2023-05-18T04:44:06.405Z,11.02
2023-05-18T04:44:39.262Z,11.02
2023-05-18T04:45:15.983Z,11.08
2023-05-18T04:45:50.854Z,11.09
2023-05-18T04:46:23.374Z,11.08
2023-05-18T04:46:56.101Z,11.09
2023-05-18T04:47:30.273Z,11.05
2023-05-18T04:48:02.209Z,11.08
2023-05-18T04:48:33.930Z,11.05
2023-05-18T04:49:05.607Z,11.02
2023-05-18T04:49:37.656Z,11.00
2023-05-18T04:50:09.668Z,11.05
2023-05-18T04:50:42.089Z,11.07
2023-05-18T04:51:13.764Z,11.07
2023-05-18T04:51:47.049Z,11.05
2023-05-18T04:52:22.302Z,11.08
2023-05-18T04:52:57.862Z,11.14
2023-05-18T04:53:29.659Z,11.18
2023-05-18T04:54:03.337Z,11.19
2023-05-18T04:54:34.973Z,11.22
2023-05-18T04:55:10.931Z,11.25
2023-05-18T04:55:42.880Z,11.19
2023-05-18T04:56:15.097Z,11.19
2023-05-18T04:56:47.504Z,11.16
2023-05-18T04:57:19.244Z,11.14
2023-05-18T04:57:51.078Z,11.14
2023-05-18T04:58:22.895Z,11.16
2023-05-18T04:58:59.413Z,11.15
2023-05-18T04:59:31.080Z,11.15
2023-05-18T05:00:05.995Z,11.19
2023-05-18T05:00:37.879Z,11.16
2023-05-18T05:01:09.563Z,11.16
2023-05-18T05:01:41.372Z,11.25
2023-05-18T05:02:13.979Z,11.26
2023-05-18T05:02:46.421Z,11.21
2023-05-18T05:03:18.202Z,11.22
2023-05-18T05:03:50.001Z,11.18
2023-05-18T05:04:22.408Z,11.18
2023-05-18T05:04:54.156Z,11.18
2023-05-18T05:05:26.460Z,11.22
2023-05-18T05:05:58.080Z,11.26
2023-05-18T05:06:29.789Z,11.26
2023-05-18T05:07:01.701Z,11.30
2023-05-18T05:07:33.400Z,11.26
2023-05-18T05:08:06.846Z,11.35
2023-05-18T05:08:38.561Z,11.26
2023-05-18T05:09:10.237Z,11.23
2023-05-18T05:09:42.167Z,11.25
2023-05-18T05:10:13.901Z,11.30
2023-05-18T05:10:45.694Z,11.32
2023-05-18T05:11:17.567Z,11.36
2023-05-18T05:11:49.590Z,11.42
2023-05-18T05:12:21.230Z,11.38
2023-05-18T05:12:52.999Z,11.39
2023-05-18T05:13:24.722Z,11.40
2023-05-18T05:13:56.466Z,11.46
2023-05-18T05:14:28.131Z,11.38
2023-05-18T05:14:59.952Z,11.43
2023-05-18T05:15:31.800Z,11.36
2023-05-18T05:16:03.915Z,11.30
2023-05-18T05:16:36.208Z,11.29
2023-05-18T05:17:08.125Z,11.30
2023-05-18T05:17:39.890Z,11.36
2023-05-18T05:18:11.782Z,11.35
2023-05-18T05:18:45.836Z,11.33
2023-05-18T05:19:18.802Z,11.40
2023-05-18T05:19:50.730Z,11.32
2023-05-18T05:20:22.496Z,11.39
2023-05-18T05:20:54.905Z,11.43
2023-05-18T05:21:26.801Z,11.46
2023-05-18T05:21:58.493Z,11.43
2023-05-18T05:22:30.392Z,11.42
2023-05-18T05:23:02.242Z,11.42
2023-05-18T05:23:33.944Z,11.42
2023-05-18T05:24:06.236Z,11.44
2023-05-18T05:24:37.913Z,11.39
2023-05-18T05:25:09.844Z,11.40
2023-05-18T05:25:41.638Z,11.40
2023-05-18T05:26:13.356Z,11.33
2023-05-18T05:26:45.058Z,11.39
2023-05-18T05:27:16.795Z,11.39
2023-05-18T05:27:48.493Z,11.42
2023-05-18T05:28:20.230Z,11.39
2023-05-18T05:28:51.927Z,11.40
2023-05-18T05:29:23.544Z,11.42
2023-05-18T05:29:56.554Z,11.42
2023-05-18T05:30:28.258Z,11.49
2023-05-18T05:30:59.964Z,11.52
2023-05-18T05:31:32.097Z,11.53
2023-05-18T05:32:05.309Z,11.53
2023-05-18T05:32:37.207Z,11.50
2023-05-18T05:33:09.009Z,11.56
2023-05-18T05:33:41.148Z,11.52
2023-05-18T05:34:13.619Z,11.47
2023-05-18T05:34:47.099Z,11.47
2023-05-18T05:35:18.985Z,11.43
2023-05-18T05:35:50.746Z,11.50
2023-05-18T05:36:22.392Z,11.46
2023-05-18T05:36:54.194Z,11.52
2023-05-18T05:37:25.883Z,11.53
2023-05-18T05:37:57.566Z,11.47
2023-05-18T05:38:29.342Z,11.53
2023-05-18T05:39:01.098Z,11.43
2023-05-18T05:39:32.828Z,11.30
2023-05-18T05:40:06.669Z,11.30
2023-05-18T05:40:38.447Z,11.29
2023-05-18T05:41:10.165Z,11.33
2023-05-18T05:41:41.894Z,11.28
2023-05-18T05:42:13.845Z,11.22
2023-05-18T05:42:45.510Z,11.22
2023-05-18T05:43:17.262Z,11.26
2023-05-18T05:43:48.906Z,11.30
2023-05-18T05:44:20.632Z,11.30
2023-05-18T05:44:52.343Z,11.33
2023-05-18T05:45:24.013Z,11.26
2023-05-18T05:45:55.680Z,11.22
2023-05-18T05:46:27.482Z,11.25
2023-05-18T05:46:59.261Z,11.30
2023-05-18T05:47:31.734Z,11.23
2023-05-18T05:48:03.589Z,11.26
2023-05-18T05:48:35.319Z,11.29
2023-05-18T05:49:07.004Z,11.26
2023-05-18T05:49:38.727Z,11.30
2023-05-18T05:50:11.010Z,11.33
2023-05-18T05:50:42.844Z,11.35
2023-05-18T05:51:14.486Z,11.36
2023-05-18T05:51:46.144Z,11.53
2023-05-18T05:52:17.802Z,11.50
2023-05-18T05:52:49.475Z,11.62
2023-05-18T05:53:23.504Z,11.65
2023-05-18T05:53:55.228Z,11.59
2023-05-18T05:54:26.914Z,11.56
2023-05-18T05:55:00.550Z,11.46
2023-05-18T05:55:32.476Z,11.49
2023-05-18T05:56:04.480Z,11.56
2023-05-18T05:56:36.100Z,11.44
2023-05-18T05:57:07.894Z,11.52
2023-05-18T05:57:42.963Z,11.53
2023-05-18T05:58:14.668Z,11.49
2023-05-18T05:58:46.837Z,11.49
2023-05-18T05:59:18.898Z,11.53
2023-05-18T05:59:51.327Z,11.47
2023-05-18T06:00:24.335Z,11.50
2023-05-18T06:00:56.220Z,11.52
2023-05-18T06:01:29.250Z,11.52
2023-05-18T06:02:00.896Z,11.47
2023-05-18T06:02:34.323Z,11.46
2023-05-18T06:03:06.540Z,11.47
2023-05-18T06:03:38.911Z,11.52
2023-05-18T06:04:12.634Z,11.56
2023-05-18T06:04:44.656Z,11.52
2023-05-18T06:05:16.381Z,11.55
2023-05-18T06:05:48.162Z,11.52
2023-05-18T06:06:20.127Z,11.52
2023-05-18T06:06:51.810Z,11.50
2023-05-18T06:07:24.720Z,11.53
2023-05-18T06:07:56.990Z,11.52
2023-05-18T06:08:28.658Z,11.52
2023-05-18T06:09:00.311Z,11.56
2023-05-18T06:09:31.995Z,11.55
2023-05-18T06:10:03.895Z,11.52
2023-05-18T06:10:35.611Z,11.52
2023-05-18T06:11:09.292Z,11.52
2023-05-18T06:11:42.687Z,11.53
2023-05-18T06:12:14.600Z,11.52
2023-05-18T06:12:46.252Z,11.55
2023-05-18T06:13:17.951Z,11.50
2023-05-18T06:13:49.675Z,11.56
2023-05-18T06:14:21.558Z,11.55
2023-05-18T06:14:57.635Z,11.53
2023-05-18T06:15:29.609Z,11.55
2023-05-18T06:16:01.637Z,11.58
2023-05-18T06:16:33.583Z,11.56
2023-05-18T06:17:06.161Z,11.53
2023-05-18T06:17:39.223Z,11.55
2023-05-18T06:18:13.385Z,11.55
2023-05-18T06:18:45.274Z,11.60
2023-05-18T06:19:17.187Z,11.69
2023-05-18T06:19:48.964Z,11.66
2023-05-18T06:20:20.748Z,11.66
2023-05-18T06:20:52.565Z,11.63
2023-05-18T06:21:24.293Z,11.66
2023-05-18T06:21:57.191Z,11.69
2023-05-18T06:22:28.889Z,11.65
2023-05-18T06:23:01.129Z,11.62
2023-05-18T06:23:32.808Z,11.63
2023-05-18T06:24:05.258Z,11.66
2023-05-18T06:24:37.127Z,11.62
2023-05-18T06:25:10.869Z,11.66
2023-05-18T06:25:42.661Z,11.65
2023-05-18T06:26:14.740Z,11.67
2023-05-18T06:26:46.412Z,11.73
2023-05-18T06:27:19.379Z,11.76
2023-05-18T06:27:52.076Z,11.71
2023-05-18T06:28:23.764Z,11.66
2023-05-18T06:28:55.548Z,11.69
2023-05-18T06:29:27.598Z,11.73
2023-05-18T06:29:59.288Z,11.76
2023-05-18T06:30:30.977Z,11.77
2023-05-18T06:31:02.784Z,11.76
2023-05-18T06:31:35.088Z,11.71
2023-05-18T06:32:07.441Z,11.73
2023-05-18T06:32:39.336Z,11.77
2023-05-18T06:33:11.189Z,11.80
2023-05-18T06:33:43.037Z,11.87
2023-05-18T06:34:14.672Z,11.93
2023-05-18T06:34:47.416Z,11.88
2023-05-18T06:35:19.160Z,11.87
2023-05-18T06:35:51.392Z,11.88
2023-05-18T06:36:23.219Z,11.87
2023-05-18T06:36:55.226Z,11.87
2023-05-18T06:37:26.887Z,11.90
2023-05-18T06:37:58.541Z,11.86
2023-05-18T06:38:30.580Z,11.83
2023-05-18T06:39:02.212Z,11.80
2023-05-18T06:39:33.862Z,11.81
2023-05-18T06:40:07.478Z,11.84
2023-05-18T06:40:39.312Z,11.88
2023-05-18T06:41:11.329Z,11.88
2023-05-18T06:41:45.113Z,11.88
2023-05-18T06:42:16.873Z,11.81
2023-05-18T06:42:48.538Z,11.87
2023-05-18T06:43:20.300Z,11.87
2023-05-18T06:43:51.998Z,11.83
2023-05-18T06:44:23.656Z,11.84
2023-05-18T06:44:55.317Z,11.73
2023-05-18T06:45:27.147Z,11.81
2023-05-18T06:45:58.877Z,11.86
2023-05-18T06:46:30.737Z,11.84
2023-05-18T06:47:02.635Z,11.91
2023-05-18T06:47:34.336Z,11.90
2023-05-18T06:48:06.437Z,11.88
2023-05-18T06:48:38.793Z,11.88
2023-05-18T06:49:10.442Z,11.93
2023-05-18T06:49:42.402Z,11.98
2023-05-18T06:50:14.170Z,12.00
2023-05-18T06:50:45.813Z,12.00
2023-05-18T06:51:17.701Z,11.98
2023-05-18T06:51:49.476Z,12.01
2023-05-18T06:52:21.224Z,12.01
2023-05-18T06:52:53.504Z,11.95
2023-05-18T06:53:25.206Z,11.90
2023-05-18T06:53:57.246Z,11.84
2023-05-18T06:54:29.562Z,11.84
2023-05-18T06:55:04.406Z,11.84
2023-05-18T06:55:36.165Z,11.84
2023-05-18T06:56:08.099Z,11.87
2023-05-18T06:56:39.796Z,11.88
2023-05-18T06:57:11.859Z,11.95
2023-05-18T06:57:43.605Z,11.91
2023-05-18T06:58:15.309Z,11.90
2023-05-18T06:58:47.031Z,11.95
2023-05-18T06:59:18.695Z,11.94
2023-05-18T06:59:53.751Z,11.93
2023-05-18T07:00:25.615Z,11.91
2023-05-18T07:00:58.100Z,11.91
2023-05-18T07:01:29.787Z,11.91
2023-05-18T07:02:01.642Z,11.95
2023-05-18T07:02:33.369Z,11.97
2023-05-18T07:03:05.325Z,11.93
2023-05-18T07:03:37.692Z,11.93
2023-05-18T07:04:09.427Z,11.93
2023-05-18T07:04:43.098Z,11.98